Time;durP1;ratioP1;P1;durP2;ratioP2;P2;SDS_P1;SDS_P2;PMS_P1;PMS_P2;Temp;Humidity;BMP_temperature;BMP_pressure;BME280_temperature;BME280_humidity;BME280_pressure;Samples;Min_cycle;Max_cycle;Signal;HPM_P1;HPM_P2
2021/12/05 00:23:22;;;;;;;0.13;0.03;;;4.00;99.90;;;;;;5094475;28;20044;-51
2021/12/05 00:25:53;;;;;;;0.10;0.10;;;4.00;99.90;;;;;;5094036;28;20157;-51
2021/12/05 01:10:06;;;;;;;0.17;0.17;;;3.80;99.90;;;;;;5093761;28;20035;-49
2021/12/05 01:15:07;;;;;;;0.00;0.00;;;3.80;99.90;;;;;;5093705;28;20035;-48
2021/12/05 01:20:19;;;;;;;0.00;0.00;;;3.80;99.90;;;;;;5093371;28;20019;-52
2021/12/05 01:22:52;;;;;;;0.32;0.32;;;3.70;99.90;;;;;;5093539;28;20024;-50
2021/12/05 01:33:19;;;;;;;0.00;0.00;;;3.70;99.90;;;;;;5093384;28;20133;-52
2021/12/05 01:35:56;;;;;;;0.00;0.00;;;3.80;99.90;;;;;;5093161;28;20032;-50
2021/12/05 01:46:25;;;;;;;0.00;0.00;;;3.80;99.90;;;;;;5093285;28;20371;-48
2021/12/05 01:51:54;;;;;;;0.00;0.00;;;3.80;99.90;;;;;;5092914;28;20047;-52
2021/12/05 02:37:15;;;;;;;0.00;0.00;;;3.70;99.90;;;;;;5096422;28;20028;-50
2021/12/05 02:42:24;;;;;;;0.22;0.22;;;3.70;99.90;;;;;;5096412;28;20039;-46
2021/12/05 02:44:49;;;;;;;0.00;0.00;;;3.90;99.90;;;;;;5095850;28;20055;-51
2021/12/05 02:47:21;;;;;;;0.00;0.00;;;4.00;99.90;;;;;;5096007;28;20051;-48
2021/12/05 02:49:48;;;;;;;;;;;4.00;99.90;;;;;;5096417;28;20463;-49
2021/12/05 02:52:23;;;;;;;0.00;0.00;;;4.10;99.90;;;;;;5095692;28;20230;-48
2021/12/05 02:54:52;;;;;;;0.00;0.00;;;4.10;99.90;;;;;;5096064;28;20043;-49
2021/12/05 02:57:30;;;;;;;0.00;0.00;;;4.00;99.90;;;;;;5096012;28;20024;-52
2021/12/05 02:59:58;;;;;;;0.00;0.00;;;4.10;99.90;;;;;;5095727;28;20024;-49
2021/12/05 03:02:39;;;;;;;0.00;0.00;;;4.20;99.90;;;;;;5092262;28;20398;-48
2021/12/05 03:05:09;;;;;;;0.00;0.00;;;4.20;99.90;;;;;;5075773;28;20348;-48
2021/12/05 03:07:39;;;;;;;0.00;0.00;;;4.20;99.90;;;;;;5075224;28;20021;-49
2021/12/05 03:10:07;;;;;;;0.30;0.10;;;4.20;99.90;;;;;;5075818;28;20021;-46
2021/12/05 03:12:35;;;;;;;0.00;0.00;;;3.90;99.90;;;;;;5068382;28;20052;-54
2021/12/05 03:15:04;;;;;;;0.00;0.00;;;3.60;99.90;;;;;;5087722;28;20028;-48
2021/12/05 03:17:30;;;;;;;0.40;0.20;;;3.70;99.90;;;;;;5068735;28;20074;-46
2021/12/05 03:19:55;;;;;;;0.00;0.00;;;3.60;99.90;;;;;;5075054;28;20029;-50
2021/12/05 03:22:21;;;;;;;0.00;0.00;;;3.50;99.90;;;;;;5075365;28;20444;-50
2021/12/05 03:24:48;;;;;;;0.00;0.00;;;3.40;99.90;;;;;;5057000;28;20029;-50
2021/12/05 03:27:14;;;;;;;0.00;0.00;;;3.40;99.90;;;;;;5066853;28;20056;-49
2021/12/05 03:29:40;;;;;;;0.00;0.00;;;3.40;99.90;;;;;;5072001;28;20017;-48
2021/12/05 03:32:06;;;;;;;0.00;0.00;;;3.40;99.90;;;;;;5075072;28;20025;-46
2021/12/05 03:34:33;;;;;;;0.10;0.10;;;3.50;99.90;;;;;;5073820;28;20090;-48
2021/12/05 03:36:59;;;;;;;0.00;0.00;;;3.40;99.90;;;;;;5057010;28;20063;-51
2021/12/05 03:39:27;;;;;;;0.00;0.00;;;3.50;99.90;;;;;;5072537;28;20021;-51
2021/12/05 03:41:53;;;;;;;0.15;0.15;;;3.40;99.90;;;;;;5067845;28;20017;-49
2021/12/05 03:44:23;;;;;;;0.00;0.00;;;3.40;99.90;;;;;;5073437;28;20084;-50
2021/12/05 03:46:51;;;;;;;0.00;0.00;;;3.40;99.90;;;;;;5073523;28;20029;-51
2021/12/05 03:49:17;;;;;;;11.55;0.55;;;3.40;99.90;;;;;;5064187;28;20021;-51
2021/12/05 03:51:48;;;;;;;0.00;0.00;;;3.40;99.90;;;;;;5072155;28;20435;-52
2021/12/05 03:54:14;;;;;;;0.00;0.00;;;3.40;99.90;;;;;;5072194;28;20028;-51
2021/12/05 03:56:40;;;;;;;0.00;0.00;;;3.40;99.90;;;;;;5072156;28;20274;-50
2021/12/05 03:59:08;;;;;;;0.00;0.00;;;3.40;99.90;;;;;;5071981;28;20054;-50
2021/12/05 04:01:35;;;;;;;0.00;0.00;;;3.30;99.90;;;;;;5072376;28;20056;-51
2021/12/05 04:04:01;;;;;;;0.00;0.00;;;3.30;99.90;;;;;;5091218;28;20101;-46
2021/12/05 04:06:28;;;;;;;0.00;0.00;;;3.40;99.90;;;;;;5094604;28;20028;-50
2021/12/05 04:08:59;;;;;;;0.00;0.00;;;3.40;99.90;;;;;;5094236;28;20031;-46
2021/12/05 04:11:30;;;;;;;0.00;0.00;;;3.40;99.90;;;;;;5094324;28;20020;-51
2021/12/05 04:13:56;;;;;;;0.00;0.00;;;3.30;99.90;;;;;;5094422;28;20110;-47
2021/12/05 04:16:23;;;;;;;0.00;0.00;;;3.20;99.90;;;;;;5094008;28;20265;-49
2021/12/05 04:18:49;;;;;;;0.00;0.00;;;3.20;99.90;;;;;;5094167;28;20090;-48
2021/12/05 04:21:16;;;;;;;0.00;0.00;;;3.20;99.90;;;;;;5094393;28;20443;-49
2021/12/05 04:23:43;;;;;;;0.00;0.00;;;3.20;99.90;;;;;;5094299;28;20390;-48
2021/12/05 04:26:10;;;;;;;0.00;0.00;;;3.20;99.90;;;;;;5094279;28;20024;-51
2021/12/05 04:28:38;;;;;;;0.00;0.00;;;3.30;99.90;;;;;;5094145;28;20115;-46
2021/12/05 04:31:07;;;;;;;0.00;0.00;;;3.30;99.90;;;;;;5075703;28;20039;-48
2021/12/05 04:33:33;;;;;;;0.00;0.00;;;3.30;99.90;;;;;;5094033;28;20024;-48
2021/12/05 04:35:59;;;;;;;0.00;0.00;;;3.30;99.90;;;;;;5093955;28;20084;-48
2021/12/05 04:38:26;;;;;;;0.00;0.00;;;3.30;99.90;;;;;;5094119;28;20076;-47
2021/12/05 04:40:52;;;;;;;0.00;0.00;;;3.30;99.90;;;;;;5094059;28;20034;-47
2021/12/05 04:43:18;;;;;;;0.00;0.00;;;3.20;99.90;;;;;;5093770;28;20036;-49
2021/12/05 04:45:44;;;;;;;0.00;0.00;;;3.20;99.90;;;;;;5094043;28;20028;-47
2021/12/05 04:48:11;;;;;;;0.00;0.00;;;3.20;99.90;;;;;;5093953;28;20109;-47
2021/12/05 04:50:37;;;;;;;0.00;0.00;;;3.20;99.90;;;;;;5093848;28;20383;-45
2021/12/05 04:53:05;;;;;;;0.00;0.00;;;3.10;99.90;;;;;;5093773;28;20028;-47
2021/12/05 04:55:31;;;;;;;0.00;0.00;;;3.10;99.90;;;;;;5093900;28;20048;-51
2021/12/05 04:57:58;;;;;;;0.13;0.13;;;3.00;99.90;;;;;;5093496;28;20091;-48
2021/12/05 05:00:30;;;;;;;0.00;0.00;;;3.10;99.90;;;;;;5075288;28;20115;-49
2021/12/05 05:02:57;;;;;;;0.00;0.00;;;3.20;99.90;;;;;;5093429;28;20443;-49
2021/12/05 05:05:25;;;;;;;0.00;0.00;;;3.20;99.90;;;;;;5093761;28;20103;-51
2021/12/05 05:07:51;;;;;;;0.00;0.00;;;3.20;99.90;;;;;;5093647;28;20365;-51
2021/12/05 05:10:23;;;;;;;0.00;0.00;;;3.30;99.90;;;;;;5093580;28;20028;-50
2021/12/05 05:12:49;;;;;;;0.00;0.00;;;3.30;99.90;;;;;;5093593;28;20020;-48
2021/12/05 05:15:20;;;;;;;0.00;0.00;;;3.30;99.90;;;;;;5093516;28;20024;-48
2021/12/05 05:17:47;;;;;;;0.00;0.00;;;3.20;99.90;;;;;;5093603;28;20086;-48
2021/12/05 05:20:25;;;;;;;0.00;0.00;;;3.30;99.90;;;;;;5093302;28;20028;-49
2021/12/05 05:26:38;;;;;;;0.00;0.00;;;3.40;99.90;;;;;;5048375;28;20459;-51
2021/12/05 05:50:14;;;;;;;0.00;0.00;;;3.60;99.90;;;;;;5097101;28;20031;-48
2021/12/05 05:52:40;;;;;;;0.00;0.00;;;3.50;99.90;;;;;;5097138;28;20028;-51
2021/12/05 05:55:06;;;;;;;0.00;0.00;;;3.50;99.90;;;;;;5078837;28;20039;-49
2021/12/05 05:57:39;;;;;;;0.00;0.00;;;3.50;99.90;;;;;;5097035;28;20028;-50
2021/12/05 06:00:17;;;;;;;0.00;0.00;;;3.50;99.90;;;;;;5096753;28;20474;-49
2021/12/05 06:05:30;;;;;;;0.00;0.00;;;3.50;99.90;;;;;;5096975;28;20055;-47
2021/12/05 06:07:55;;;;;;;0.00;0.00;;;3.50;99.90;;;;;;5078578;28;20024;-48
2021/12/05 06:10:24;;;;;;;0.00;0.00;;;3.50;99.90;;;;;;5096917;28;20038;-47
2021/12/05 06:12:50;;;;;;;0.00;0.00;;;3.50;99.90;;;;;;5096704;28;20055;-46
2021/12/05 06:15:18;;;;;;;0.00;0.00;;;3.50;99.90;;;;;;5096705;28;20024;-48
2021/12/05 06:17:44;;;;;;;0.00;0.00;;;3.50;99.90;;;;;;5096551;28;20036;-47
2021/12/05 06:20:12;;;;;;;0.00;0.00;;;3.50;99.90;;;;;;5096671;28;20032;-50
2021/12/05 06:22:38;;;;;;;0.00;0.00;;;3.60;99.90;;;;;;5078487;28;20503;-49
2021/12/05 06:25:08;;;;;;;0.00;0.00;;;3.50;99.90;;;;;;5096639;28;20103;-48
2021/12/05 06:27:34;;;;;;;0.00;0.00;;;3.50;99.90;;;;;;5096515;28;20028;-49
2021/12/05 06:30:09;;;;;;;0.00;0.00;;;3.50;99.90;;;;;;5096033;28;20477;-49
2021/12/05 06:37:50;;;;;;;0.00;0.00;;;3.50;99.90;;;;;;5096406;28;20031;-48
2021/12/05 06:40:24;;;;;;;0.00;0.00;;;3.50;99.90;;;;;;5093388;28;20458;-48
2021/12/05 06:42:57;;;;;;;0.00;0.00;;;3.60;99.90;;;;;;5096535;28;20282;-52
2021/12/05 06:48:07;;;;;;;0.00;0.00;;;3.50;99.90;;;;;;5079166;28;20490;-49
2021/12/05 06:50:33;;;;;;;0.00;0.00;;;3.60;99.90;;;;;;5094163;28;20027;-48
2021/12/05 06:52:59;;;;;;;0.00;0.00;;;3.60;99.90;;;;;;5100604;28;20024;-49
2021/12/05 06:55:25;;;;;;;0.00;0.00;;;3.60;99.90;;;;;;5094350;28;20062;-52
2021/12/05 06:57:51;;;;;;;0.00;0.00;;;3.60;99.90;;;;;;5102432;28;20028;-48
2021/12/05 07:00:23;;;;;;;0.00;0.00;;;3.50;99.90;;;;;;5095757;28;20024;-45
2021/12/05 07:02:49;;;;;;;0.00;0.00;;;3.60;99.90;;;;;;5075350;28;20082;-50
2021/12/05 07:08:13;;;;;;;0.00;0.00;;;3.50;99.90;;;;;;5061879;28;20052;-52
2021/12/05 07:10:49;;;;;;;0.00;0.00;;;3.50;99.90;;;;;;5086960;28;20035;-51
2021/12/05 07:21:25;;;;;;;0.00;0.00;;;3.50;99.90;;;;;;5086034;28;20379;-50
2021/12/05 07:26:30;;;;;;;0.00;0.00;;;3.60;99.90;;;;;;5094236;28;20024;-47
2021/12/05 07:42:41;;;;;;;0.00;0.00;;;3.80;99.90;;;;;;5074670;28;20074;-49
2021/12/05 07:45:09;;;;;;;0.00;0.00;;;4.00;99.90;;;;;;5074137;28;20025;-51
2021/12/05 07:47:38;;;;;;;0.00;0.00;;;4.00;99.90;;;;;;5074083;28;20025;-52
2021/12/05 07:50:09;;;;;;;0.00;0.00;;;4.00;99.90;;;;;;5064600;28;20143;-49
2021/12/05 07:52:38;;;;;;;0.00;0.00;;;4.00;99.90;;;;;;5088697;28;20028;-48
2021/12/05 07:55:14;;;;;;;2.33;2.17;;;4.10;99.90;;;;;;5093327;28;20036;-46
2021/12/05 07:57:58;;;;;;;0.00;0.00;;;4.10;99.90;;;;;;5074409;28;20074;-51
2021/12/05 08:16:47;;;;;;;0.00;0.00;;;4.30;99.90;;;;;;5087951;28;20043;-46
2021/12/05 08:19:13;;;;;;;0.00;0.00;;;4.30;99.90;;;;;;5074011;28;20028;-47
2021/12/05 08:21:38;;;;;;;0.00;0.00;;;4.30;99.90;;;;;;5082727;28;20139;-51
2021/12/05 08:24:04;;;;;;;0.00;0.00;;;4.40;99.90;;;;;;5075859;28;20514;-51
2021/12/05 08:26:33;;;;;;;0.00;0.00;;;4.40;99.90;;;;;;5094273;28;20032;-49
2021/12/05 08:29:07;;;;;;;0.00;0.00;;;4.30;99.90;;;;;;5093848;28;20103;-49
2021/12/05 09:28:51;;;;;;;0.00;0.00;;;5.60;99.90;;;;;;5061378;28;20490;-51
2021/12/05 10:37:11;;;;;;;0.00;0.00;;;6.30;99.90;;;;;;5083411;28;20032;-48
2021/12/05 10:39:37;;;;;;;0.00;0.00;;;6.20;99.90;;;;;;5096114;28;20056;-49
2021/12/05 10:42:43;;;;;;;0.00;0.00;;;6.20;99.90;;;;;;5094937;28;20446;-46
2021/12/05 10:45:41;;;;;;;0.73;0.70;;;6.10;99.90;;;;;;5099010;28;20024;-51
2021/12/05 10:48:18;;;;;;;0.00;0.00;;;6.10;99.90;;;;;;5086969;28;20020;-53
2021/12/05 10:50:50;;;;;;;0.00;0.00;;;6.10;99.90;;;;;;5116532;28;20028;-50
2021/12/05 10:53:27;;;;;;;0.13;0.13;;;6.20;99.90;;;;;;5083683;28;20437;-54
2021/12/05 10:55:57;;;;;;;0.00;0.00;;;6.10;99.90;;;;;;5076290;28;20029;-54
2021/12/05 10:58:29;;;;;;;0.00;0.00;;;6.00;99.90;;;;;;5074830;28;20052;-50
2021/12/05 11:01:05;;;;;;;0.00;0.00;;;6.00;99.90;;;;;;5070985;28;20453;-50
2021/12/05 11:03:31;;;;;;;0.00;0.00;;;6.20;99.90;;;;;;5088694;28;20475;-48
2021/12/05 11:05:57;;;;;;;0.00;0.00;;;6.10;99.90;;;;;;5087531;28;20036;-49
2021/12/05 11:08:37;;;;;;;0.88;0.88;;;6.10;99.90;;;;;;5093351;28;20059;-51
2021/12/05 11:11:16;;;;;;;0.00;0.00;;;6.20;99.90;;;;;;5091832;28;20064;-52
2021/12/05 11:13:44;;;;;;;0.00;0.00;;;6.10;99.90;;;;;;5081650;28;20044;-49
2021/12/05 11:16:38;;;;;;;0.00;0.00;;;6.10;99.90;;;;;;5094837;28;20465;-50
2021/12/05 11:19:18;;;;;;;0.00;0.00;;;6.20;99.90;;;;;;5094307;28;20024;-51
2021/12/05 11:21:47;;;;;;;0.00;0.00;;;6.20;99.90;;;;;;5079330;28;20024;-50
2021/12/05 11:24:20;;;;;;;0.00;0.00;;;6.20;99.90;;;;;;5081419;28;20430;-51
2021/12/05 11:27:06;;;;;;;0.00;0.00;;;6.20;99.90;;;;;;5090033;28;20024;-52
2021/12/05 11:29:54;;;;;;;0.00;0.00;;;6.10;99.90;;;;;;5093620;28;20055;-47
2021/12/05 11:32:31;;;;;;;0.00;0.00;;;6.20;99.90;;;;;;5090581;28;20459;-52
2021/12/05 11:34:57;;;;;;;0.00;0.00;;;6.10;99.90;;;;;;5084563;28;20039;-50
2021/12/05 11:37:22;;;;;;;0.00;0.00;;;6.20;99.90;;;;;;5081676;28;20032;-50
2021/12/05 11:39:48;;;;;;;0.80;0.80;;;6.20;99.90;;;;;;5074393;28;20027;-51
2021/12/05 11:42:20;;;;;;;0.00;0.00;;;6.00;99.90;;;;;;5073826;28;20030;-51
2021/12/05 11:44:52;;;;;;;0.00;0.00;;;5.80;99.90;;;;;;5072814;28;20054;-51
2021/12/05 11:47:22;;;;;;;0.00;0.00;;;5.90;99.90;;;;;;5074194;28;20035;-52
2021/12/05 11:49:48;;;;;;;0.00;0.00;;;5.70;99.90;;;;;;5089673;28;20036;-53
2021/12/05 11:52:22;;;;;;;0.00;0.00;;;5.80;99.90;;;;;;5092664;28;20127;-49
2021/12/05 11:54:48;;;;;;;0.00;0.00;;;5.80;99.90;;;;;;5086726;28;20025;-47
2021/12/05 11:57:24;;;;;;;0.00;0.00;;;6.00;99.90;;;;;;5092177;28;20035;-47
2021/12/05 12:00:04;;;;;;;0.00;0.00;;;6.10;99.90;;;;;;5072325;28;20086;-51
2021/12/05 12:02:34;;;;;;;0.00;0.00;;;6.20;99.90;;;;;;5079921;28;20148;-50
2021/12/05 12:05:01;;;;;;;0.00;0.00;;;6.20;99.90;;;;;;5092149;28;20089;-55
2021/12/05 12:08:00;;;;;;;0.00;0.00;;;6.00;99.90;;;;;;5071854;28;20033;-51
2021/12/05 12:10:26;;;;;;;0.00;0.00;;;5.90;99.90;;;;;;5081692;28;20077;-50
2021/12/05 12:13:00;;;;;;;0.00;0.00;;;6.00;99.90;;;;;;5091370;28;20031;-51
2021/12/05 12:15:28;;;;;;;0.00;0.00;;;6.10;99.90;;;;;;5091128;28;20035;-50
2021/12/05 12:18:03;;;;;;;0.00;0.00;;;6.20;99.90;;;;;;5073776;28;20028;-52
2021/12/05 12:20:30;;;;;;;0.00;0.00;;;6.20;99.90;;;;;;5091194;28;20039;-46
2021/12/05 12:22:56;;;;;;;0.00;0.00;;;6.20;99.90;;;;;;5074489;28;20115;-51
2021/12/05 12:25:26;;;;;;;0.00;0.00;;;6.30;99.90;;;;;;5080918;28;20040;-52
2021/12/05 12:27:52;;;;;;;0.00;0.00;;;6.20;99.90;;;;;;5090340;28;20036;-48
2021/12/05 12:30:24;;;;;;;0.00;0.00;;;6.20;99.90;;;;;;5081388;28;20394;-48
2021/12/05 12:32:55;;;;;;;0.00;0.00;;;6.20;99.90;;;;;;5080751;28;20024;-48
2021/12/05 12:35:27;;;;;;;0.00;0.00;;;6.40;99.90;;;;;;5073546;28;20086;-52
2021/12/05 12:38:10;;;;;;;0.00;0.00;;;6.50;99.90;;;;;;5074131;28;20032;-49
2021/12/05 12:40:41;;;;;;;0.00;0.00;;;6.50;99.90;;;;;;5073335;28;20032;-50
2021/12/05 12:43:28;;;;;;;0.00;0.00;;;6.50;99.90;;;;;;5089157;28;20028;-49
2021/12/05 12:45:54;;;;;;;0.00;0.00;;;6.60;99.90;;;;;;5092825;28;20039;-51
2021/12/05 12:48:25;;;;;;;0.00;0.00;;;6.50;99.90;;;;;;5080996;28;20025;-50
2021/12/05 12:50:52;;;;;;;0.00;0.00;;;6.50;99.90;;;;;;5077341;28;20039;-49
2021/12/05 12:53:37;;;;;;;0.20;0.20;;;6.40;99.90;;;;;;5091568;28;20431;-52
2021/12/05 12:56:10;;;;;;;0.00;0.00;;;6.50;99.90;;;;;;5088979;28;20145;-51
2021/12/05 12:58:49;;;;;;;0.00;0.00;;;6.40;99.90;;;;;;5089645;28;20028;-54
2021/12/05 13:10:00;;;;;;;0.00;0.00;;;6.50;99.90;;;;;;5072694;28;20412;-49
2021/12/05 13:10:30;;;;;;;0.00;0.00;;;6.40;99.90;;;;;;5066724;28;20112;-51
2021/12/05 13:12:45;;;;;;;0.00;0.00;;;6.30;99.90;;;;;;5081335;28;20032;-54
2021/12/05 13:15:28;;;;;;;0.00;0.00;;;6.30;99.90;;;;;;5092907;28;20127;-53
2021/12/05 13:18:15;;;;;;;0.00;0.00;;;6.30;99.90;;;;;;5073146;28;20020;-49
2021/12/05 13:20:41;;;;;;;0.00;0.00;;;6.20;99.90;;;;;;5075912;28;20035;-51
2021/12/05 13:23:06;;;;;;;0.00;0.00;;;6.10;99.90;;;;;;5085739;28;20020;-50
2021/12/05 13:25:37;;;;;;;0.00;0.00;;;6.10;99.90;;;;;;5113625;28;20019;-47
2021/12/05 13:28:32;;;;;;;0.00;0.00;;;6.20;99.90;;;;;;5101821;28;20016;-50
2021/12/05 13:30:59;;;;;;;0.00;0.00;;;6.20;99.90;;;;;;5079650;28;20505;-51
2021/12/05 13:33:31;;;;;;;0.00;0.00;;;6.10;99.90;;;;;;5091824;28;20042;-49
2021/12/05 13:35:58;;;;;;;0.00;0.00;;;6.00;99.90;;;;;;5091646;28;20024;-50
2021/12/05 13:38:36;;;;;;;0.00;0.00;;;6.10;99.90;;;;;;5072045;28;20031;-52
2021/12/05 13:41:29;;;;;;;1.48;1.38;;;6.10;99.90;;;;;;5054593;28;20082;-54
2021/12/05 13:44:01;;;;;;;0.00;0.00;;;6.10;99.90;;;;;;5069855;28;20479;-50
2021/12/05 13:46:39;;;;;;;0.00;0.00;;;6.20;99.90;;;;;;5072650;28;20033;-47
2021/12/05 13:49:38;;;;;;;0.00;0.00;;;6.10;99.90;;;;;;5090330;28;20103;-50
2021/12/05 13:52:33;;;;;;;0.00;0.00;;;6.10;99.90;;;;;;5044626;28;20036;-51
2021/12/05 13:55:42;;;;;;;0.08;0.08;;;6.10;99.90;;;;;;5087573;28;20020;-48
2021/12/05 13:58:16;;;;;;;0.00;0.00;;;6.10;99.90;;;;;;5086695;28;20028;-49
2021/12/05 14:01:07;;;;;;;0.00;0.00;;;5.90;99.90;;;;;;5091550;28;20043;-49
2021/12/05 14:03:45;;;;;;;0.00;0.00;;;6.10;99.90;;;;;;5087395;28;20391;-52
2021/12/05 14:06:41;;;;;;;0.00;0.00;;;6.10;99.90;;;;;;5070922;28;20036;-48
2021/12/05 14:09:22;;;;;;;0.00;0.00;;;6.20;99.90;;;;;;5095632;28;20028;-50
2021/12/05 14:12:30;;;;;;;0.00;0.00;;;6.20;99.90;;;;;;5111398;28;20024;-49
2021/12/05 14:15:00;;;;;;;0.00;0.00;;;6.20;99.90;;;;;;5033694;28;20042;-49
2021/12/05 14:17:27;;;;;;;0.00;0.00;;;6.10;99.90;;;;;;5033647;28;20021;-51
2021/12/05 14:20:02;;;;;;;0.00;0.00;;;6.10;99.90;;;;;;5076479;28;20417;-49
2021/12/05 14:22:30;;;;;;;0.00;0.00;;;6.10;99.90;;;;;;5108982;28;20100;-51
2021/12/05 14:24:58;;;;;;;0.00;0.00;;;6.10;99.90;;;;;;5093290;28;20032;-51
2021/12/05 14:27:27;;;;;;;0.00;0.00;;;6.10;99.90;;;;;;5094799;28;20024;-49
2021/12/05 14:29:54;;;;;;;0.00;0.00;;;6.10;99.90;;;;;;5091377;28;20048;-52
2021/12/05 14:32:32;;;;;;;0.00;0.00;;;6.10;99.90;;;;;;5094814;28;20025;-50
2021/12/05 14:35:13;;;;;;;0.00;0.00;;;6.10;99.90;;;;;;5093225;28;20543;-48
2021/12/05 14:37:42;;;;;;;0.00;0.00;;;6.00;99.90;;;;;;5090342;28;20032;-48
2021/12/05 14:40:14;;;;;;;0.00;0.00;;;5.90;99.90;;;;;;5090897;28;20092;-48
2021/12/05 14:42:43;;;;;;;0.00;0.00;;;6.00;99.90;;;;;;5081111;28;20094;-54
2021/12/05 14:45:24;;;;;;;0.00;0.00;;;5.90;99.90;;;;;;5075333;28;20028;-49
2021/12/05 14:47:52;;;;;;;0.00;0.00;;;6.00;99.90;;;;;;5116652;28;20068;-47
2021/12/05 14:50:27;;;;;;;0.00;0.00;;;5.80;99.90;;;;;;5115499;28;20311;-52
2021/12/05 14:52:55;;;;;;;0.00;0.00;;;5.80;99.90;;;;;;5115112;28;20114;-51
2021/12/05 14:55:22;;;;;;;0.00;0.00;;;5.70;99.90;;;;;;5115432;28;20092;-53
2021/12/05 14:57:58;;;;;;;0.00;0.00;;;5.80;99.90;;;;;;5115145;28;20020;-49
2021/12/05 15:00:29;;;;;;;0.00;0.00;;;5.80;99.90;;;;;;5114137;28;20395;-47
2021/12/05 15:03:09;;;;;;;0.00;0.00;;;5.80;99.90;;;;;;5114867;28;20497;-53
2021/12/05 15:05:36;;;;;;;0.00;0.00;;;5.70;99.90;;;;;;5116251;28;20015;-50
2021/12/05 15:08:07;;;;;;;0.00;0.00;;;5.60;99.90;;;;;;5115589;28;20559;-51
2021/12/05 15:10:34;;;;;;;0.00;0.00;;;5.70;99.90;;;;;;5115979;28;20031;-51
2021/12/05 15:13:00;;;;;;;0.00;0.00;;;5.60;99.90;;;;;;5115530;28;20425;-51
2021/12/05 15:15:26;;;;;;;0.00;0.00;;;5.60;99.90;;;;;;5096736;28;20022;-50
2021/12/05 15:17:54;;;;;;;0.00;0.00;;;5.30;99.90;;;;;;5115440;28;20053;-49
2021/12/05 15:20:23;;;;;;;0.00;0.00;;;5.20;99.90;;;;;;5112336;28;20020;-50
2021/12/05 15:22:52;;;;;;;0.00;0.00;;;5.10;99.90;;;;;;5092616;28;20391;-47
2021/12/05 15:25:21;;;;;;;0.05;0.05;;;5.00;99.90;;;;;;5085770;28;20036;-47
2021/12/05 15:27:48;;;;;;;0.00;0.00;;;4.90;99.90;;;;;;5107178;28;20382;-51
2021/12/05 15:30:30;;;;;;;0.00;0.00;;;4.90;99.90;;;;;;5085980;28;20025;-49
2021/12/05 15:33:20;;;;;;;0.88;0.43;;;4.80;99.90;;;;;;5073507;28;20048;-49
2021/12/05 15:35:47;;;;;;;0.00;0.00;;;4.60;99.90;;;;;;5074713;28;20116;-50
2021/12/05 15:38:21;;;;;;;0.00;0.00;;;4.70;99.90;;;;;;5076864;28;20067;-49
2021/12/05 15:40:49;;;;;;;0.00;0.00;;;4.70;99.90;;;;;;5076703;28;20367;-50
2021/12/05 15:43:19;;;;;;;0.00;0.00;;;4.70;99.90;;;;;;5090923;28;20032;-50
2021/12/05 15:45:48;;;;;;;0.00;0.00;;;4.70;99.90;;;;;;5093746;28;20072;-51
2021/12/05 15:48:25;;;;;;;0.05;0.05;;;4.80;99.90;;;;;;5093678;28;20057;-49
2021/12/05 15:50:52;;;;;;;0.00;0.00;;;4.80;99.90;;;;;;5093030;28;20061;-51
2021/12/05 15:53:20;;;;;;;0.00;0.00;;;4.70;99.90;;;;;;5093613;28;20032;-50
2021/12/05 15:55:57;;;;;;;0.00;0.00;;;4.60;99.90;;;;;;5088606;28;20020;-48
2021/12/05 15:58:31;;;;;;;0.00;0.00;;;4.70;99.90;;;;;;5079879;28;20115;-47
2021/12/05 16:01:12;;;;;;;0.00;0.00;;;4.50;99.90;;;;;;5091711;28;20504;-50
2021/12/05 16:03:51;;;;;;;0.00;0.00;;;4.40;99.90;;;;;;5092755;28;20052;-49
2021/12/05 16:06:18;;;;;;;0.00;0.00;;;4.30;99.90;;;;;;5078635;28;20025;-51
2021/12/05 16:08:49;;;;;;;0.00;0.00;;;4.30;99.90;;;;;;5068801;28;20114;-51
2021/12/05 16:11:20;;;;;;;0.00;0.00;;;4.20;99.90;;;;;;5072289;28;20391;-50
2021/12/05 16:13:49;;;;;;;0.00;0.00;;;4.30;99.90;;;;;;5069796;28;20112;-50
2021/12/05 16:16:28;;;;;;;0.00;0.00;;;4.20;99.90;;;;;;5060656;28;20024;-49
2021/12/05 16:18:57;;;;;;;0.00;0.00;;;4.30;99.90;;;;;;5071205;28;20088;-50
2021/12/05 16:21:27;;;;;;;0.00;0.00;;;4.40;99.90;;;;;;5060321;28;20029;-47
2021/12/05 16:24:13;;;;;;;0.00;0.00;;;4.40;99.90;;;;;;5065266;28;20112;-48
2021/12/05 16:26:40;;;;;;;0.00;0.00;;;4.40;99.90;;;;;;5067993;28;20031;-54
2021/12/05 16:29:09;;;;;;;0.00;0.00;;;4.20;99.90;;;;;;5072190;28;20467;-52
2021/12/05 16:31:45;;;;;;;0.00;0.00;;;4.20;99.90;;;;;;5062003;28;20024;-51
2021/12/05 16:34:19;;;;;;;0.75;0.75;;;4.20;99.90;;;;;;5068603;28;20039;-49
2021/12/05 16:36:53;;;;;;;0.00;0.00;;;4.20;99.90;;;;;;5069213;28;20016;-51
2021/12/05 16:39:29;;;;;;;0.00;0.00;;;4.10;99.90;;;;;;5064779;28;20507;-48
2021/12/05 16:42:22;;;;;;;0.00;0.00;;;4.10;99.90;;;;;;5069721;28;20025;-51
2021/12/05 16:45:01;;;;;;;0.00;0.00;;;4.00;99.90;;;;;;5073098;28;20115;-51
2021/12/05 16:47:29;;;;;;;0.00;0.00;;;4.00;99.90;;;;;;5069834;28;20031;-52
2021/12/05 16:49:58;;;;;;;0.00;0.00;;;4.00;99.90;;;;;;5057814;28;20056;-51
2021/12/05 16:52:34;;;;;;;0.00;0.00;;;4.20;99.90;;;;;;5056557;28;20024;-52
2021/12/05 16:55:26;;;;;;;0.00;0.00;;;4.30;99.90;;;;;;5060026;28;20032;-49
2021/12/05 16:58:38;;;;;;;0.00;0.00;;;4.10;99.90;;;;;;5073135;28;20036;-48
2021/12/05 17:00:50;;;;;;;0.00;0.00;;;3.90;99.90;;;;;;5063817;28;20383;-52
2021/12/05 17:03:23;;;;;;;0.00;0.00;;;3.90;99.90;;;;;;5073316;28;20052;-54
2021/12/05 17:05:51;;;;;;;0.00;0.00;;;3.80;99.90;;;;;;5072888;28;20024;-52
2021/12/05 17:08:21;;;;;;;0.00;0.00;;;3.90;99.90;;;;;;5073329;28;20028;-48
2021/12/05 17:11:00;;;;;;;0.00;0.00;;;3.80;99.90;;;;;;5073029;28;20031;-54
2021/12/05 17:13:33;;;;;;;0.00;0.00;;;3.90;99.90;;;;;;5066487;28;20040;-53
2021/12/05 17:16:12;;;;;;;0.00;0.00;;;3.80;99.90;;;;;;5073234;28;20017;-54
2021/12/05 17:18:42;;;;;;;0.00;0.00;;;3.80;99.90;;;;;;5070493;28;20032;-50
2021/12/05 17:21:27;;;;;;;0.00;0.00;;;3.80;99.90;;;;;;5064380;28;20021;-52
2021/12/05 17:24:05;;;;;;;0.00;0.00;;;3.80;99.90;;;;;;5053049;28;20028;-50
2021/12/05 17:26:37;;;;;;;0.00;0.00;;;3.80;99.90;;;;;;5066058;28;20025;-54
2021/12/05 17:29:19;;;;;;;0.00;0.00;;;3.80;99.90;;;;;;5066252;28;20489;-51
2021/12/05 17:32:06;;;;;;;0.00;0.00;;;3.80;99.90;;;;;;5050771;28;20029;-50
2021/12/05 17:34:41;;;;;;;0.00;0.00;;;3.80;99.90;;;;;;5072422;28;20036;-53
2021/12/05 17:37:21;;;;;;;0.00;0.00;;;3.80;99.90;;;;;;5072561;28;20028;-52
2021/12/05 17:39:48;;;;;;;0.00;0.00;;;3.80;99.90;;;;;;5075915;28;20153;-52
2021/12/05 17:42:23;;;;;;;0.00;0.00;;;3.80;99.90;;;;;;5070323;28;20036;-51
2021/12/05 17:44:52;;;;;;;0.00;0.00;;;3.80;99.90;;;;;;5067641;28;20063;-52
2021/12/05 17:47:18;;;;;;;0.00;0.00;;;3.80;99.90;;;;;;5051683;28;20074;-48
2021/12/05 17:49:47;;;;;;;0.00;0.00;;;3.90;99.90;;;;;;5069738;28;20501;-50
2021/12/05 17:52:14;;;;;;;0.00;0.00;;;3.90;99.90;;;;;;5083542;28;20153;-51
2021/12/05 17:57:19;;;;;;;0.00;0.00;;;3.90;99.90;;;;;;5070673;28;20078;-54
2021/12/05 18:05:14;;;;;;;0.00;0.00;;;3.90;99.90;;;;;;5078557;28;20111;-51
2021/12/05 18:07:41;;;;;;;0.00;0.00;;;3.90;99.90;;;;;;5093407;28;20031;-52
2021/12/05 18:10:07;;;;;;;0.00;0.00;;;4.00;99.90;;;;;;5089101;28;20107;-53
2021/12/05 18:12:34;;;;;;;0.00;0.00;;;4.00;99.90;;;;;;5071195;28;20059;-49
2021/12/05 18:15:18;;;;;;;0.00;0.00;;;3.90;99.90;;;;;;5078022;28;20060;-51
2021/12/05 18:17:44;;;;;;;13.45;3.83;;;4.00;99.90;;;;;;5087738;28;20024;-50
2021/12/05 18:20:14;;;;;;;0.00;0.00;;;4.10;99.90;;;;;;5087125;28;20036;-53
2021/12/05 18:22:40;;;;;;;0.00;0.00;;;4.10;99.90;;;;;;5082560;28;20131;-51
2021/12/05 18:25:09;;;;;;;0.00;0.00;;;4.00;99.90;;;;;;5081901;28;20112;-49
2021/12/05 18:27:36;;;;;;;0.00;0.00;;;4.10;99.90;;;;;;5093707;28;20070;-54
2021/12/05 18:30:03;;;;;;;0.00;0.00;;;4.00;99.90;;;;;;5076208;28;20032;-49
2021/12/05 18:32:29;;;;;;;4.38;3.83;;;4.00;99.90;;;;;;5075634;28;20513;-52
2021/12/05 18:34:55;;;;;;;0.00;0.00;;;4.00;99.90;;;;;;5081693;28;20036;-49
2021/12/05 18:37:20;;;;;;;0.00;0.00;;;4.00;99.90;;;;;;5077666;28;20436;-53
2021/12/05 18:39:50;;;;;;;0.00;0.00;;;4.00;99.90;;;;;;5078763;28;20024;-48
2021/12/05 18:42:18;;;;;;;0.00;0.00;;;3.90;99.90;;;;;;5076507;28;20111;-50
2021/12/05 18:44:50;;;;;;;0.00;0.00;;;4.00;99.90;;;;;;5082516;28;20359;-51
2021/12/05 18:47:16;;;;;;;0.00;0.00;;;3.90;99.90;;;;;;5081474;28;20103;-52
2021/12/05 18:49:44;;;;;;;0.00;0.00;;;3.90;99.90;;;;;;5087577;28;20028;-52
2021/12/05 18:52:10;;;;;;;0.52;0.52;;;3.80;99.90;;;;;;5077574;28;20467;-52
2021/12/05 18:54:42;;;;;;;0.00;0.00;;;3.70;99.90;;;;;;5079037;28;20037;-51
2021/12/05 18:57:12;;;;;;;;;;;3.80;99.90;;;;;;5090738;28;20093;-49
2021/12/05 18:59:45;;;;;;;0.00;0.00;;;3.70;99.90;;;;;;5093034;28;19908;-54
2021/12/05 19:04:58;;;;;;;0.00;0.00;;;3.60;99.90;;;;;;5090260;28;20039;-50
2021/12/05 19:07:30;;;;;;;0.00;0.00;;;3.80;99.90;;;;;;5093181;28;20039;-53
2021/12/05 19:12:33;;;;;;;0.00;0.00;;;3.70;99.90;;;;;;5095129;28;20446;-48
2021/12/05 19:15:06;;;;;;;0.00;0.00;;;3.70;99.90;;;;;;5108147;28;20426;-52
2021/12/05 19:17:36;;;;;;;0.00;0.00;;;3.60;99.90;;;;;;5087169;28;20048;-51